sensor_id;sensor_type;location;lat;lon;timestamp;temperature;humidity
62007;DHT22;47963;53.008;6.754;2022-09-03T00:00:20;17.90;99.90
62007;DHT22;47963;53.008;6.754;2022-09-03T00:05:48;17.90;99.90
62007;DHT22;47963;53.008;6.754;2022-09-03T00:08:26;17.90;99.90
62007;DHT22;47963;53.008;6.754;2022-09-03T00:10:58;17.90;99.90
62007;DHT22;47963;53.008;6.754;2022-09-03T00:13:34;17.80;99.90
62007;DHT22;47963;53.008;6.754;2022-09-03T00:16:04;17.80;99.90
62007;DHT22;47963;53.008;6.754;2022-09-03T00:18:41;17.80;99.90
62007;DHT22;47963;53.008;6.754;2022-09-03T00:21:13;17.80;99.90
62007;DHT22;47963;53.008;6.754;2022-09-03T00:23:41;17.70;99.90
62007;DHT22;47963;53.008;6.754;2022-09-03T00:29:06;17.60;99.90
62007;DHT22;47963;53.008;6.754;2022-09-03T00:31:57;17.60;99.90
62007;DHT22;47963;53.008;6.754;2022-09-03T00:34:34;17.50;99.90
62007;DHT22;47963;53.008;6.754;2022-09-03T00:37:04;17.50;99.90
62007;DHT22;47963;53.008;6.754;2022-09-03T00:39:30;17.50;99.90
62007;DHT22;47963;53.008;6.754;2022-09-03T00:42:16;17.40;99.90
62007;DHT22;47963;53.008;6.754;2022-09-03T00:45:13;17.40;99.90
62007;DHT22;47963;53.008;6.754;2022-09-03T00:48:02;17.40;99.90
62007;DHT22;47963;53.008;6.754;2022-09-03T00:55:48;17.30;99.90
62007;DHT22;47963;53.008;6.754;2022-09-03T01:01:17;17.30;99.90
62007;DHT22;47963;53.008;6.754;2022-09-03T01:04:10;17.30;99.90
62007;DHT22;47963;53.008;6.754;2022-09-03T01:07:02;17.20;99.90
62007;DHT22;47963;53.008;6.754;2022-09-03T01:09:52;17.20;99.90
62007;DHT22;47963;53.008;6.754;2022-09-03T01:18:06;17.10;99.90
62007;DHT22;47963;53.008;6.754;2022-09-03T01:28:59;17.00;99.90
62007;DHT22;47963;53.008;6.754;2022-09-03T01:31:49;17.00;99.90
62007;DHT22;47963;53.008;6.754;2022-09-03T01:37:18;16.90;99.90
62007;DHT22;47963;53.008;6.754;2022-09-03T01:56:50;16.70;99.90
62007;DHT22;47963;53.008;6.754;2022-09-03T02:02:07;16.70;99.90
62007;DHT22;47963;53.008;6.754;2022-09-03T02:04:35;16.70;99.90
62007;DHT22;47963;53.008;6.754;2022-09-03T02:07:02;16.60;99.90
62007;DHT22;47963;53.008;6.754;2022-09-03T02:09:28;16.60;99.90
62007;DHT22;47963;53.008;6.754;2022-09-03T02:12:07;16.60;99.90
62007;DHT22;47963;53.008;6.754;2022-09-03T02:14:35;16.50;99.90
62007;DHT22;47963;53.008;6.754;2022-09-03T02:17:02;16.60;99.90
62007;DHT22;47963;53.008;6.754;2022-09-03T02:19:29;16.50;99.90
62007;DHT22;47963;53.008;6.754;2022-09-03T02:21:56;16.50;99.90
62007;DHT22;47963;53.008;6.754;2022-09-03T02:24:27;16.50;99.90
62007;DHT22;47963;53.008;6.754;2022-09-03T02:26:53;16.50;99.90
62007;DHT22;47963;53.008;6.754;2022-09-03T02:29:20;16.50;99.90
62007;DHT22;47963;53.008;6.754;2022-09-03T02:31:46;16.40;99.90
62007;DHT22;47963;53.008;6.754;2022-09-03T02:34:12;16.40;99.90
62007;DHT22;47963;53.008;6.754;2022-09-03T02:36:41;16.40;99.90
62007;DHT22;47963;53.008;6.754;2022-09-03T02:39:07;16.30;99.90
62007;DHT22;47963;53.008;6.754;2022-09-03T02:41:33;16.30;99.90
62007;DHT22;47963;53.008;6.754;2022-09-03T02:44:04;16.30;99.90
62007;DHT22;47963;53.008;6.754;2022-09-03T02:46:43;16.30;99.90
62007;DHT22;47963;53.008;6.754;2022-09-03T02:49:11;16.20;99.90
62007;DHT22;47963;53.008;6.754;2022-09-03T02:51:39;16.20;99.90
62007;DHT22;47963;53.008;6.754;2022-09-03T02:54:07;16.30;99.90
62007;DHT22;47963;53.008;6.754;2022-09-03T02:56:33;16.20;99.90
62007;DHT22;47963;53.008;6.754;2022-09-03T02:58:59;16.20;99.90
62007;DHT22;47963;53.008;6.754;2022-09-03T03:01:25;16.20;99.90
62007;DHT22;47963;53.008;6.754;2022-09-03T03:03:51;16.20;99.90
62007;DHT22;47963;53.008;6.754;2022-09-03T03:06:17;16.20;99.90
62007;DHT22;47963;53.008;6.754;2022-09-03T03:08:45;16.20;99.90
62007;DHT22;47963;53.008;6.754;2022-09-03T03:11:11;16.00;99.90
62007;DHT22;47963;53.008;6.754;2022-09-03T03:13:37;16.10;99.90
62007;DHT22;47963;53.008;6.754;2022-09-03T03:16:04;16.10;99.90
62007;DHT22;47963;53.008;6.754;2022-09-03T03:18:30;16.00;99.90
62007;DHT22;47963;53.008;6.754;2022-09-03T03:20:56;16.10;99.90
62007;DHT22;47963;53.008;6.754;2022-09-03T03:23:27;16.00;99.90
62007;DHT22;47963;53.008;6.754;2022-09-03T03:25:53;16.00;99.90
62007;DHT22;47963;53.008;6.754;2022-09-03T03:28:18;16.10;99.90
62007;DHT22;47963;53.008;6.754;2022-09-03T03:30:44;16.10;99.90
62007;DHT22;47963;53.008;6.754;2022-09-03T03:33:12;16.00;99.90
62007;DHT22;47963;53.008;6.754;2022-09-03T03:35:38;16.10;99.90
62007;DHT22;47963;53.008;6.754;2022-09-03T03:38:05;16.10;99.90
62007;DHT22;47963;53.008;6.754;2022-09-03T03:40:30;16.00;99.90
62007;DHT22;47963;53.008;6.754;2022-09-03T03:42:57;16.00;99.90
62007;DHT22;47963;53.008;6.754;2022-09-03T03:45:23;16.00;99.90
62007;DHT22;47963;53.008;6.754;2022-09-03T03:47:48;16.00;99.90
62007;DHT22;47963;53.008;6.754;2022-09-03T03:50:14;15.90;99.90
62007;DHT22;47963;53.008;6.754;2022-09-03T03:52:41;15.90;99.90
62007;DHT22;47963;53.008;6.754;2022-09-03T03:55:08;15.90;99.90
62007;DHT22;47963;53.008;6.754;2022-09-03T03:57:33;15.90;99.90
62007;DHT22;47963;53.008;6.754;2022-09-03T04:00:00;15.80;99.90
62007;DHT22;47963;53.008;6.754;2022-09-03T04:02:29;15.80;99.90
62007;DHT22;47963;53.008;6.754;2022-09-03T04:04:54;15.80;99.90
62007;DHT22;47963;53.008;6.754;2022-09-03T04:07:20;15.80;99.90
62007;DHT22;47963;53.008;6.754;2022-09-03T04:09:46;15.70;99.90
62007;DHT22;47963;53.008;6.754;2022-09-03T04:12:12;15.70;99.90
62007;DHT22;47963;53.008;6.754;2022-09-03T04:14:37;15.60;99.90
62007;DHT22;47963;53.008;6.754;2022-09-03T04:17:03;15.60;99.90
62007;DHT22;47963;53.008;6.754;2022-09-03T04:19:29;15.60;99.90
62007;DHT22;47963;53.008;6.754;2022-09-03T04:21:55;15.60;99.90
62007;DHT22;47963;53.008;6.754;2022-09-03T04:24:21;15.50;99.90
62007;DHT22;47963;53.008;6.754;2022-09-03T04:26:46;15.50;99.90
62007;DHT22;47963;53.008;6.754;2022-09-03T04:29:15;15.30;99.90
62007;DHT22;47963;53.008;6.754;2022-09-03T04:31:40;15.30;99.90
62007;DHT22;47963;53.008;6.754;2022-09-03T04:34:26;15.20;99.90
62007;DHT22;47963;53.008;6.754;2022-09-03T04:36:52;15.20;99.90
62007;DHT22;47963;53.008;6.754;2022-09-03T04:39:17;15.30;99.90
62007;DHT22;47963;53.008;6.754;2022-09-03T04:41:43;15.20;99.90
62007;DHT22;47963;53.008;6.754;2022-09-03T04:44:09;15.20;99.90
62007;DHT22;47963;53.008;6.754;2022-09-03T04:46:35;15.10;99.90
62007;DHT22;47963;53.008;6.754;2022-09-03T04:49:01;15.10;99.90
62007;DHT22;47963;53.008;6.754;2022-09-03T04:51:27;15.10;99.90
62007;DHT22;47963;53.008;6.754;2022-09-03T04:53:59;15.00;99.90
62007;DHT22;47963;53.008;6.754;2022-09-03T04:56:35;14.90;99.90
62007;DHT22;47963;53.008;6.754;2022-09-03T04:59:05;14.90;99.90
62007;DHT22;47963;53.008;6.754;2022-09-03T05:01:33;14.80;99.90
62007;DHT22;47963;53.008;6.754;2022-09-03T05:03:59;14.90;99.90
62007;DHT22;47963;53.008;6.754;2022-09-03T05:06:27;14.90;99.90
62007;DHT22;47963;53.008;6.754;2022-09-03T05:08:54;14.90;99.90
62007;DHT22;47963;53.008;6.754;2022-09-03T05:11:20;14.80;99.90
62007;DHT22;47963;53.008;6.754;2022-09-03T05:13:51;14.80;99.90
62007;DHT22;47963;53.008;6.754;2022-09-03T05:16:18;14.70;99.90
62007;DHT22;47963;53.008;6.754;2022-09-03T05:18:44;14.70;99.90
62007;DHT22;47963;53.008;6.754;2022-09-03T05:21:13;14.80;99.90
62007;DHT22;47963;53.008;6.754;2022-09-03T05:23:44;14.60;99.90
62007;DHT22;47963;53.008;6.754;2022-09-03T05:26:18;14.60;99.90
62007;DHT22;47963;53.008;6.754;2022-09-03T05:28:44;14.60;99.90
62007;DHT22;47963;53.008;6.754;2022-09-03T05:31:18;14.60;99.90
62007;DHT22;47963;53.008;6.754;2022-09-03T05:33:49;14.70;99.90
62007;DHT22;47963;53.008;6.754;2022-09-03T05:36:17;14.70;99.90
62007;DHT22;47963;53.008;6.754;2022-09-03T05:38:45;14.70;99.90
62007;DHT22;47963;53.008;6.754;2022-09-03T05:41:12;14.70;99.90
62007;DHT22;47963;53.008;6.754;2022-09-03T05:43:39;14.70;99.90
62007;DHT22;47963;53.008;6.754;2022-09-03T05:46:11;14.70;99.90
62007;DHT22;47963;53.008;6.754;2022-09-03T05:48:38;14.70;99.90
62007;DHT22;47963;53.008;6.754;2022-09-03T05:51:15;14.70;99.90
62007;DHT22;47963;53.008;6.754;2022-09-03T05:53:45;14.80;99.90
62007;DHT22;47963;53.008;6.754;2022-09-03T05:56:13;14.80;99.90
62007;DHT22;47963;53.008;6.754;2022-09-03T05:58:43;14.90;99.90
62007;DHT22;47963;53.008;6.754;2022-09-03T06:01:11;14.90;99.90
62007;DHT22;47963;53.008;6.754;2022-09-03T06:03:39;14.90;99.90
62007;DHT22;47963;53.008;6.754;2022-09-03T06:06:06;14.90;99.90
62007;DHT22;47963;53.008;6.754;2022-09-03T06:08:32;15.00;99.90
62007;DHT22;47963;53.008;6.754;2022-09-03T06:11:00;15.10;99.90
62007;DHT22;47963;53.008;6.754;2022-09-03T06:13:26;15.10;99.90
62007;DHT22;47963;53.008;6.754;2022-09-03T06:16:03;15.10;99.90
62007;DHT22;47963;53.008;6.754;2022-09-03T06:18:30;15.00;99.90
62007;DHT22;47963;53.008;6.754;2022-09-03T06:21:00;15.00;99.90
62007;DHT22;47963;53.008;6.754;2022-09-03T06:23:27;15.00;99.90
62007;DHT22;47963;53.008;6.754;2022-09-03T06:26:06;15.10;99.90
62007;DHT22;47963;53.008;6.754;2022-09-03T06:28:34;15.10;99.90
62007;DHT22;47963;53.008;6.754;2022-09-03T06:31:02;15.10;99.90
62007;DHT22;47963;53.008;6.754;2022-09-03T06:33:33;15.20;99.90
62007;DHT22;47963;53.008;6.754;2022-09-03T06:36:00;15.30;99.90
62007;DHT22;47963;53.008;6.754;2022-09-03T06:38:28;15.30;99.90
62007;DHT22;47963;53.008;6.754;2022-09-03T06:40:58;15.40;99.90
62007;DHT22;47963;53.008;6.754;2022-09-03T06:43:29;15.50;99.90
62007;DHT22;47963;53.008;6.754;2022-09-03T06:46:00;15.50;99.90
62007;DHT22;47963;53.008;6.754;2022-09-03T06:48:27;15.50;99.90
62007;DHT22;47963;53.008;6.754;2022-09-03T06:50:57;15.60;99.90
62007;DHT22;47963;53.008;6.754;2022-09-03T06:53:25;15.70;99.90
62007;DHT22;47963;53.008;6.754;2022-09-03T06:56:02;15.80;99.90
62007;DHT22;47963;53.008;6.754;2022-09-03T06:58:30;15.80;99.90
62007;DHT22;47963;53.008;6.754;2022-09-03T07:01:13;15.90;99.90
62007;DHT22;47963;53.008;6.754;2022-09-03T07:03:41;16.00;99.90
62007;DHT22;47963;53.008;6.754;2022-09-03T07:06:09;16.00;99.90
62007;DHT22;47963;53.008;6.754;2022-09-03T07:08:35;16.10;99.90
62007;DHT22;47963;53.008;6.754;2022-09-03T07:11:02;16.10;99.90
62007;DHT22;47963;53.008;6.754;2022-09-03T07:13:31;16.20;99.90
62007;DHT22;47963;53.008;6.754;2022-09-03T07:16:02;16.30;99.90
62007;DHT22;47963;53.008;6.754;2022-09-03T07:18:29;16.40;99.90
62007;DHT22;47963;53.008;6.754;2022-09-03T07:20:59;16.40;99.90
62007;DHT22;47963;53.008;6.754;2022-09-03T07:23:26;16.50;99.90
62007;DHT22;47963;53.008;6.754;2022-09-03T07:25:56;16.60;99.90
62007;DHT22;47963;53.008;6.754;2022-09-03T07:28:22;16.60;99.90
62007;DHT22;47963;53.008;6.754;2022-09-03T07:30:52;16.70;99.90
62007;DHT22;47963;53.008;6.754;2022-09-03T07:33:18;16.80;99.90
62007;DHT22;47963;53.008;6.754;2022-09-03T07:35:45;16.80;99.90
62007;DHT22;47963;53.008;6.754;2022-09-03T07:38:11;16.90;99.90
62007;DHT22;47963;53.008;6.754;2022-09-03T07:40:40;17.00;99.90
62007;DHT22;47963;53.008;6.754;2022-09-03T07:43:06;17.10;99.90
62007;DHT22;47963;53.008;6.754;2022-09-03T07:45:32;17.10;99.90
62007;DHT22;47963;53.008;6.754;2022-09-03T07:47:59;17.20;99.90
62007;DHT22;47963;53.008;6.754;2022-09-03T07:50:25;17.20;99.90
62007;DHT22;47963;53.008;6.754;2022-09-03T07:52:57;17.30;99.90
62007;DHT22;47963;53.008;6.754;2022-09-03T07:55:23;17.40;99.90
62007;DHT22;47963;53.008;6.754;2022-09-03T07:57:49;17.40;99.90
62007;DHT22;47963;53.008;6.754;2022-09-03T08:00:19;17.50;99.90
62007;DHT22;47963;53.008;6.754;2022-09-03T08:02:44;17.60;99.90
62007;DHT22;47963;53.008;6.754;2022-09-03T08:05:10;17.70;99.90
62007;DHT22;47963;53.008;6.754;2022-09-03T08:07:36;17.70;99.90
62007;DHT22;47963;53.008;6.754;2022-09-03T08:10:01;17.80;99.90
62007;DHT22;47963;53.008;6.754;2022-09-03T08:12:27;17.90;99.90
62007;DHT22;47963;53.008;6.754;2022-09-03T08:14:53;18.00;99.90
62007;DHT22;47963;53.008;6.754;2022-09-03T08:17:19;18.00;99.90
62007;DHT22;47963;53.008;6.754;2022-09-03T08:19:44;18.10;99.90
62007;DHT22;47963;53.008;6.754;2022-09-03T08:22:11;18.20;99.90
62007;DHT22;47963;53.008;6.754;2022-09-03T08:24:37;18.30;99.90
62007;DHT22;47963;53.008;6.754;2022-09-03T08:27:02;18.40;99.90
62007;DHT22;47963;53.008;6.754;2022-09-03T08:29:29;18.50;99.90
62007;DHT22;47963;53.008;6.754;2022-09-03T08:31:55;18.50;99.90
62007;DHT22;47963;53.008;6.754;2022-09-03T08:34:20;18.60;99.90
62007;DHT22;47963;53.008;6.754;2022-09-03T08:36:46;18.70;99.90
62007;DHT22;47963;53.008;6.754;2022-09-03T08:39:12;18.70;99.90
62007;DHT22;47963;53.008;6.754;2022-09-03T08:58:11;19.30;99.90
62007;DHT22;47963;53.008;6.754;2022-09-03T09:01:00;19.40;99.90
62007;DHT22;47963;53.008;6.754;2022-09-03T09:06:36;19.60;99.90
62007;DHT22;47963;53.008;6.754;2022-09-03T09:09:13;19.70;99.90
62007;DHT22;47963;53.008;6.754;2022-09-03T09:17:35;20.00;99.90
62007;DHT22;47963;53.008;6.754;2022-09-03T09:20:14;20.00;99.90
62007;DHT22;47963;53.008;6.754;2022-09-03T09:22:51;20.20;99.90
62007;DHT22;47963;53.008;6.754;2022-09-03T09:25:21;20.20;99.90
62007;DHT22;47963;53.008;6.754;2022-09-03T09:27:53;20.20;99.90
62007;DHT22;47963;53.008;6.754;2022-09-03T09:30:21;20.40;99.90
62007;DHT22;47963;53.008;6.754;2022-09-03T09:32:46;20.50;99.90
62007;DHT22;47963;53.008;6.754;2022-09-03T09:35:13;20.60;99.90
62007;DHT22;47963;53.008;6.754;2022-09-03T09:37:50;20.60;99.90
62007;DHT22;47963;53.008;6.754;2022-09-03T09:40:24;20.80;99.90
62007;DHT22;47963;53.008;6.754;2022-09-03T09:42:50;20.90;99.90
62007;DHT22;47963;53.008;6.754;2022-09-03T09:45:23;20.90;99.90
62007;DHT22;47963;53.008;6.754;2022-09-03T09:47:53;21.10;99.90
62007;DHT22;47963;53.008;6.754;2022-09-03T09:50:20;21.20;99.90
62007;DHT22;47963;53.008;6.754;2022-09-03T09:52:46;21.30;99.90
62007;DHT22;47963;53.008;6.754;2022-09-03T09:55:17;21.30;99.90
62007;DHT22;47963;53.008;6.754;2022-09-03T09:57:43;21.50;99.90
62007;DHT22;47963;53.008;6.754;2022-09-03T10:00:12;21.50;99.90
62007;DHT22;47963;53.008;6.754;2022-09-03T10:02:49;21.60;99.90
62007;DHT22;47963;53.008;6.754;2022-09-03T10:05:36;21.80;99.90
62007;DHT22;47963;53.008;6.754;2022-09-03T10:08:18;21.90;99.90
62007;DHT22;47963;53.008;6.754;2022-09-03T10:10:47;22.00;99.90
62007;DHT22;47963;53.008;6.754;2022-09-03T10:13:28;22.00;99.90
62007;DHT22;47963;53.008;6.754;2022-09-03T10:16:09;22.10;99.90
62007;DHT22;47963;53.008;6.754;2022-09-03T10:27:07;22.40;99.90
62007;DHT22;47963;53.008;6.754;2022-09-03T10:29:37;22.40;99.90
62007;DHT22;47963;53.008;6.754;2022-09-03T10:37:37;22.70;99.90
62007;DHT22;47963;53.008;6.754;2022-09-03T10:40:34;22.90;99.90
62007;DHT22;47963;53.008;6.754;2022-09-03T10:51:35;23.10;99.90
62007;DHT22;47963;53.008;6.754;2022-09-03T10:57:11;23.20;99.90
62007;DHT22;47963;53.008;6.754;2022-09-03T11:05:19;23.60;99.90
62007;DHT22;47963;53.008;6.754;2022-09-03T11:07:55;23.80;99.90
62007;DHT22;47963;53.008;6.754;2022-09-03T11:10:28;23.80;99.90
62007;DHT22;47963;53.008;6.754;2022-09-03T11:18:43;23.80;99.90
62007;DHT22;47963;53.008;6.754;2022-09-03T11:21:13;23.90;99.90
62007;DHT22;47963;53.008;6.754;2022-09-03T11:23:45;23.90;99.90
62007;DHT22;47963;53.008;6.754;2022-09-03T11:26:15;23.90;99.90
62007;DHT22;47963;53.008;6.754;2022-09-03T11:29:06;23.90;99.90
62007;DHT22;47963;53.008;6.754;2022-09-03T11:31:44;24.00;99.90
62007;DHT22;47963;53.008;6.754;2022-09-03T11:34:31;24.10;99.90
62007;DHT22;47963;53.008;6.754;2022-09-03T11:37:27;24.20;99.90
62007;DHT22;47963;53.008;6.754;2022-09-03T11:42:40;24.20;99.90
62007;DHT22;47963;53.008;6.754;2022-09-03T11:45:22;24.40;99.90
62007;DHT22;47963;53.008;6.754;2022-09-03T11:47:49;24.40;99.90
62007;DHT22;47963;53.008;6.754;2022-09-03T11:50:35;24.40;99.90
62007;DHT22;47963;53.008;6.754;2022-09-03T11:53:25;24.50;99.90
62007;DHT22;47963;53.008;6.754;2022-09-03T11:58:36;24.40;99.90
62007;DHT22;47963;53.008;6.754;2022-09-03T12:01:07;24.50;99.90
62007;DHT22;47963;53.008;6.754;2022-09-03T12:03:42;24.60;99.90
62007;DHT22;47963;53.008;6.754;2022-09-03T12:15:13;24.90;99.90
62007;DHT22;47963;53.008;6.754;2022-09-03T12:17:52;24.90;99.90
62007;DHT22;47963;53.008;6.754;2022-09-03T12:20:38;24.90;99.90
62007;DHT22;47963;53.008;6.754;2022-09-03T12:23:03;24.90;99.90
62007;DHT22;47963;53.008;6.754;2022-09-03T12:25:29;25.20;99.90
62007;DHT22;47963;53.008;6.754;2022-09-03T12:27:55;25.30;99.90
62007;DHT22;47963;53.008;6.754;2022-09-03T12:30:23;25.30;99.90
62007;DHT22;47963;53.008;6.754;2022-09-03T12:32:49;25.30;99.90
62007;DHT22;47963;53.008;6.754;2022-09-03T12:35:16;25.20;99.90
62007;DHT22;47963;53.008;6.754;2022-09-03T12:37:43;25.20;99.90
62007;DHT22;47963;53.008;6.754;2022-09-03T12:40:24;25.20;99.90
62007;DHT22;47963;53.008;6.754;2022-09-03T12:42:51;25.10;99.90
62007;DHT22;47963;53.008;6.754;2022-09-03T12:45:22;25.10;99.90
62007;DHT22;47963;53.008;6.754;2022-09-03T12:47:48;25.30;99.90
62007;DHT22;47963;53.008;6.754;2022-09-03T12:50:18;25.40;99.90
62007;DHT22;47963;53.008;6.754;2022-09-03T12:52:58;25.30;99.90
62007;DHT22;47963;53.008;6.754;2022-09-03T12:58:24;25.50;99.90
62007;DHT22;47963;53.008;6.754;2022-09-03T13:01:14;25.50;99.90
62007;DHT22;47963;53.008;6.754;2022-09-03T13:06:21;25.50;99.90
62007;DHT22;47963;53.008;6.754;2022-09-03T13:08:57;25.30;99.90
62007;DHT22;47963;53.008;6.754;2022-09-03T13:11:25;25.50;99.90
62007;DHT22;47963;53.008;6.754;2022-09-03T13:14:03;25.70;99.90
62007;DHT22;47963;53.008;6.754;2022-09-03T13:19:42;25.80;99.90
62007;DHT22;47963;53.008;6.754;2022-09-03T13:22:43;25.80;99.90
62007;DHT22;47963;53.008;6.754;2022-09-03T13:33:27;26.20;99.90
62007;DHT22;47963;53.008;6.754;2022-09-03T13:36:03;26.20;99.90
62007;DHT22;47963;53.008;6.754;2022-09-03T13:38:42;26.30;99.90
62007;DHT22;47963;53.008;6.754;2022-09-03T13:43:59;26.40;99.90
62007;DHT22;47963;53.008;6.754;2022-09-03T13:52:39;26.50;99.90
62007;DHT22;47963;53.008;6.754;2022-09-03T13:55:13;26.50;99.90
62007;DHT22;47963;53.008;6.754;2022-09-03T13:57:45;26.80;99.90
62007;DHT22;47963;53.008;6.754;2022-09-03T14:00:32;26.80;99.90
62007;DHT22;47963;53.008;6.754;2022-09-03T14:03:40;26.90;99.90
62007;DHT22;47963;53.008;6.754;2022-09-03T14:12:20;27.20;99.90
62007;DHT22;47963;53.008;6.754;2022-09-03T14:17:41;27.40;99.90
62007;DHT22;47963;53.008;6.754;2022-09-03T14:20:16;27.30;99.90
62007;DHT22;47963;53.008;6.754;2022-09-03T14:23:09;27.60;99.90
62007;DHT22;47963;53.008;6.754;2022-09-03T14:25:55;27.60;99.90
62007;DHT22;47963;53.008;6.754;2022-09-03T14:28:34;27.90;99.90
62007;DHT22;47963;53.008;6.754;2022-09-03T14:31:19;27.90;99.90
62007;DHT22;47963;53.008;6.754;2022-09-03T14:34:12;27.90;99.90
62007;DHT22;47963;53.008;6.754;2022-09-03T14:54:18;28.60;99.90
62007;DHT22;47963;53.008;6.754;2022-09-03T14:56:49;28.80;99.90
62007;DHT22;47963;53.008;6.754;2022-09-03T15:00:13;28.90;99.90
62007;DHT22;47963;53.008;6.754;2022-09-03T15:07:59;28.90;99.90
62007;DHT22;47963;53.008;6.754;2022-09-03T15:10:36;29.10;99.90
62007;DHT22;47963;53.008;6.754;2022-09-03T15:13:24;29.50;99.90
62007;DHT22;47963;53.008;6.754;2022-09-03T15:18:28;31.70;99.90
62007;DHT22;47963;53.008;6.754;2022-09-03T15:23:59;33.60;99.90
62007;DHT22;47963;53.008;6.754;2022-09-03T15:26:37;34.20;99.90
62007;DHT22;47963;53.008;6.754;2022-09-03T15:36:51;29.60;99.90
62007;DHT22;47963;53.008;6.754;2022-09-03T15:39:27;29.50;99.90
62007;DHT22;47963;53.008;6.754;2022-09-03T15:42:07;29.90;99.90
62007;DHT22;47963;53.008;6.754;2022-09-03T15:44:47;31.30;99.90
62007;DHT22;47963;53.008;6.754;2022-09-03T15:47:40;30.70;99.90
62007;DHT22;47963;53.008;6.754;2022-09-03T15:50:23;29.80;99.90
62007;DHT22;47963;53.008;6.754;2022-09-03T15:56:03;29.00;99.90
62007;DHT22;47963;53.008;6.754;2022-09-03T15:58:40;28.70;99.90
62007;DHT22;47963;53.008;6.754;2022-09-03T16:04:38;28.30;99.90
62007;DHT22;47963;53.008;6.754;2022-09-03T16:07:09;28.30;99.90
62007;DHT22;47963;53.008;6.754;2022-09-03T16:12:58;28.40;99.90
62007;DHT22;47963;53.008;6.754;2022-09-03T16:15:37;28.40;99.90
62007;DHT22;47963;53.008;6.754;2022-09-03T16:21:31;31.80;99.90
62007;DHT22;47963;53.008;6.754;2022-09-03T16:24:21;31.30;99.90
62007;DHT22;47963;53.008;6.754;2022-09-03T16:26:57;30.10;99.90
62007;DHT22;47963;53.008;6.754;2022-09-03T16:29:27;29.40;99.90
62007;DHT22;47963;53.008;6.754;2022-09-03T16:43:22;30.70;99.90
62007;DHT22;47963;53.008;6.754;2022-09-03T17:05:17;27.80;99.90
62007;DHT22;47963;53.008;6.754;2022-09-03T17:07:59;27.60;99.90
62007;DHT22;47963;53.008;6.754;2022-09-03T17:10:51;27.20;99.90
62007;DHT22;47963;53.008;6.754;2022-09-03T17:13:58;27.00;99.90
62007;DHT22;47963;53.008;6.754;2022-09-03T17:22:07;26.70;99.90
62007;DHT22;47963;53.008;6.754;2022-09-03T17:24:40;26.60;99.90
62007;DHT22;47963;53.008;6.754;2022-09-03T17:30:19;26.40;99.90
62007;DHT22;47963;53.008;6.754;2022-09-03T17:36:02;25.90;99.90
62007;DHT22;47963;53.008;6.754;2022-09-03T17:38:57;25.70;99.90
62007;DHT22;47963;53.008;6.754;2022-09-03T17:50:06;25.20;99.90
62007;DHT22;47963;53.008;6.754;2022-09-03T17:52:52;25.00;99.90
62007;DHT22;47963;53.008;6.754;2022-09-03T17:55:38;24.90;99.90
62007;DHT22;47963;53.008;6.754;2022-09-03T18:03:55;24.50;99.90
62007;DHT22;47963;53.008;6.754;2022-09-03T18:06:34;24.40;99.90
62007;DHT22;47963;53.008;6.754;2022-09-03T18:11:50;24.10;99.90
62007;DHT22;47963;53.008;6.754;2022-09-03T18:14:34;24.00;99.90
62007;DHT22;47963;53.008;6.754;2022-09-03T18:17:04;23.90;99.90
62007;DHT22;47963;53.008;6.754;2022-09-03T18:19:53;23.80;99.90
62007;DHT22;47963;53.008;6.754;2022-09-03T18:25:28;23.50;99.90
62007;DHT22;47963;53.008;6.754;2022-09-03T18:28:17;23.50;99.90
62007;DHT22;47963;53.008;6.754;2022-09-03T18:31:02;23.30;99.90
62007;DHT22;47963;53.008;6.754;2022-09-03T18:33:46;23.40;99.90
62007;DHT22;47963;53.008;6.754;2022-09-03T18:36:31;23.30;99.90
62007;DHT22;47963;53.008;6.754;2022-09-03T18:39:27;23.20;99.90
62007;DHT22;47963;53.008;6.754;2022-09-03T18:42:27;23.20;99.90
62007;DHT22;47963;53.008;6.754;2022-09-03T18:57:22;22.80;99.90
62007;DHT22;47963;53.008;6.754;2022-09-03T19:00:12;22.80;99.90
62007;DHT22;47963;53.008;6.754;2022-09-03T19:06:44;22.70;99.90
62007;DHT22;47963;53.008;6.754;2022-09-03T19:09:50;22.60;99.90
62007;DHT22;47963;53.008;6.754;2022-09-03T19:22:09;22.30;99.90
62007;DHT22;47963;53.008;6.754;2022-09-03T19:25:03;22.20;99.90
62007;DHT22;47963;53.008;6.754;2022-09-03T19:28:25;22.10;99.90
62007;DHT22;47963;53.008;6.754;2022-09-03T19:31:46;22.00;99.90
62007;DHT22;47963;53.008;6.754;2022-09-03T19:37:39;21.80;99.90
62007;DHT22;47963;53.008;6.754;2022-09-03T19:46:39;21.70;99.90
62007;DHT22;47963;53.008;6.754;2022-09-03T19:49:49;21.70;99.90
62007;DHT22;47963;53.008;6.754;2022-09-03T19:52:38;21.60;99.90
62007;DHT22;47963;53.008;6.754;2022-09-03T19:55:26;21.60;99.90
62007;DHT22;47963;53.008;6.754;2022-09-03T19:58:16;21.50;99.90
62007;DHT22;47963;53.008;6.754;2022-09-03T20:01:00;21.40;99.90
62007;DHT22;47963;53.008;6.754;2022-09-03T20:03:45;21.30;99.90
62007;DHT22;47963;53.008;6.754;2022-09-03T20:06:30;21.30;99.90
62007;DHT22;47963;53.008;6.754;2022-09-03T20:09:18;21.30;99.90
62007;DHT22;47963;53.008;6.754;2022-09-03T20:12:06;21.20;99.90
62007;DHT22;47963;53.008;6.754;2022-09-03T20:14:34;21.20;99.90
62007;DHT22;47963;53.008;6.754;2022-09-03T20:17:21;21.20;99.90
62007;DHT22;47963;53.008;6.754;2022-09-03T20:31:07;20.80;99.90
62007;DHT22;47963;53.008;6.754;2022-09-03T20:36:37;20.80;99.90
62007;DHT22;47963;53.008;6.754;2022-09-03T20:39:22;20.70;99.90
62007;DHT22;47963;53.008;6.754;2022-09-03T20:42:08;20.70;99.90
62007;DHT22;47963;53.008;6.754;2022-09-03T20:44:49;20.60;99.90
62007;DHT22;47963;53.008;6.754;2022-09-03T20:47:37;20.60;99.90
62007;DHT22;47963;53.008;6.754;2022-09-03T20:50:38;20.50;99.90
62007;DHT22;47963;53.008;6.754;2022-09-03T20:53:22;20.30;99.90
62007;DHT22;47963;53.008;6.754;2022-09-03T20:55:51;20.30;99.90
62007;DHT22;47963;53.008;6.754;2022-09-03T20:58:32;20.20;99.90
62007;DHT22;47963;53.008;6.754;2022-09-03T21:01:07;20.20;99.90
62007;DHT22;47963;53.008;6.754;2022-09-03T21:04:34;20.10;99.90
62007;DHT22;47963;53.008;6.754;2022-09-03T21:20:46;20.00;99.90
62007;DHT22;47963;53.008;6.754;2022-09-03T21:23:20;19.90;99.90
62007;DHT22;47963;53.008;6.754;2022-09-03T21:31:28;19.90;99.90
62007;DHT22;47963;53.008;6.754;2022-09-03T21:34:05;19.80;99.90
62007;DHT22;47963;53.008;6.754;2022-09-03T21:36:33;19.80;99.90
62007;DHT22;47963;53.008;6.754;2022-09-03T21:39:08;19.70;99.90
62007;DHT22;47963;53.008;6.754;2022-09-03T21:47:01;19.70;99.90
62007;DHT22;47963;53.008;6.754;2022-09-03T21:49:44;19.70;99.90
62007;DHT22;47963;53.008;6.754;2022-09-03T21:52:15;19.60;99.90
62007;DHT22;47963;53.008;6.754;2022-09-03T21:54:41;19.60;99.90
62007;DHT22;47963;53.008;6.754;2022-09-03T21:57:12;19.50;99.90
62007;DHT22;47963;53.008;6.754;2022-09-03T22:03:00;19.40;99.90